createdAt,value
2022-09-01T00:12:32.494Z,13.80
2022-09-01T00:16:06.275Z,13.80
2022-09-01T00:19:48.012Z,13.90
2022-09-01T00:22:48.587Z,13.80
2022-09-01T00:25:44.016Z,13.80
2022-09-01T00:31:54.171Z,13.80
2022-09-01T00:45:50.209Z,13.70
2022-09-01T00:49:29.770Z,13.80
2022-09-01T00:52:54.148Z,13.80
2022-09-01T00:59:08.942Z,13.90
2022-09-01T01:01:58.986Z,13.90
2022-09-01T01:05:19.689Z,13.90
2022-09-01T01:08:19.000Z,13.90
2022-09-01T01:11:32.188Z,13.90
2022-09-01T01:15:24.268Z,13.90
2022-09-01T01:18:25.080Z,13.90
2022-09-01T01:50:06.299Z,14.10
2022-09-01T02:12:04.731Z,14.20
2022-09-01T02:23:00.345Z,13.90
2022-09-01T02:33:49.295Z,13.80
2022-09-01T02:59:43.799Z,13.40
2022-09-01T03:06:21.260Z,13.50
2022-09-01T03:15:13.688Z,13.30
2022-09-01T03:17:57.331Z,13.40
2022-09-01T03:20:57.431Z,13.40
2022-09-01T03:27:26.279Z,13.40
2022-09-01T03:33:51.212Z,13.60
2022-09-01T03:36:44.181Z,13.80
2022-09-01T03:40:03.573Z,13.90
2022-09-01T03:46:51.940Z,14.00
2022-09-01T03:50:09.349Z,14.10
2022-09-01T04:04:56.040Z,14.30
2022-09-01T04:08:13.590Z,14.40
2022-09-01T04:11:57.332Z,14.30
2022-09-01T04:22:56.094Z,14.20
2022-09-01T04:26:18.768Z,14.20
2022-09-01T04:29:53.884Z,14.20
2022-09-01T04:40:21.390Z,13.90
2022-09-01T04:58:49.858Z,13.60
2022-09-01T05:06:01.880Z,13.60
2022-09-01T05:08:56.627Z,13.70
2022-09-01T05:11:38.986Z,13.60
2022-09-01T05:48:17.260Z,14.70
2022-09-01T05:54:49.982Z,15.50
2022-09-01T06:00:55.188Z,16.60
2022-09-01T06:20:10.369Z,16.80
2022-09-01T06:22:41.129Z,17.40
2022-09-01T06:29:06.948Z,18.80
2022-09-01T06:31:42.447Z,19.60
2022-09-01T06:34:31.398Z,19.10
2022-09-01T06:37:25.525Z,18.20
2022-09-01T06:41:10.278Z,17.50
2022-09-01T06:54:08.273Z,16.50
2022-09-01T06:57:01.335Z,16.20
2022-09-01T07:08:20.356Z,16.70
2022-09-01T07:59:22.186Z,19.10
2022-09-01T08:01:53.068Z,19.10
2022-09-01T08:04:42.057Z,19.20
2022-09-01T08:19:43.969Z,19.00
2022-09-01T08:55:46.272Z,19.90
2022-09-01T08:58:18.437Z,20.00
2022-09-01T09:00:54.850Z,20.10
2022-09-01T09:03:48.192Z,20.10
2022-09-01T09:07:13.803Z,20.00
2022-09-01T09:09:58.423Z,20.30
2022-09-01T09:12:58.011Z,20.50
2022-09-01T09:15:37.388Z,20.40
2022-09-01T09:18:38.382Z,20.40
2022-09-01T09:21:10.987Z,20.20
2022-09-01T09:38:44.120Z,20.40
2022-09-01T09:41:39.852Z,20.60
2022-09-01T09:44:24.666Z,20.70
2022-09-01T09:47:40.392Z,20.50
2022-09-01T09:50:26.423Z,20.60
2022-09-01T09:53:22.296Z,20.60
2022-09-01T09:56:02.271Z,20.50
2022-09-01T09:58:40.773Z,20.70
2022-09-01T10:01:26.906Z,20.80
2022-09-01T10:04:10.589Z,20.70
2022-09-01T10:06:55.982Z,20.70
2022-09-01T10:10:22.569Z,20.90
2022-09-01T10:12:50.888Z,20.90
2022-09-01T10:50:35.369Z,22.60
2022-09-01T11:05:33.459Z,21.40
2022-09-01T11:08:23.716Z,21.50
2022-09-01T11:46:00.852Z,20.60
2022-09-01T11:49:14.455Z,20.60
2022-09-01T12:41:14.912Z,22.40
2022-09-01T13:02:13.983Z,21.70
2022-09-01T13:05:42.437Z,21.60
2022-09-01T13:08:59.242Z,21.70
2022-09-01T13:12:13.178Z,21.80
2022-09-01T15:55:25.572Z,21.00
2022-09-01T17:03:08.493Z,19.70
2022-09-01T17:05:43.873Z,19.70
2022-09-01T17:08:22.290Z,19.60
2022-09-01T17:10:56.363Z,19.50
2022-09-01T17:13:38.792Z,19.40
2022-09-01T17:16:12.868Z,19.30
2022-09-01T17:33:17.488Z,18.90
2022-09-01T17:37:01.148Z,18.80
2022-09-01T17:37:06.748Z,19.00
2022-09-01T17:39:59.969Z,18.70
2022-09-01T17:43:18.254Z,18.60
2022-09-01T17:45:58.349Z,18.50
2022-09-01T17:48:39.907Z,18.40
2022-09-01T17:51:17.288Z,18.30
2022-09-01T17:54:15.574Z,18.20
2022-09-01T18:00:19.594Z,18.00
2022-09-01T18:03:22.698Z,17.90
2022-09-01T18:08:58.184Z,17.60
2022-09-01T18:11:43.451Z,17.50
2022-09-01T18:14:16.840Z,17.30
2022-09-01T18:16:58.316Z,17.20
2022-09-01T18:19:38.376Z,17.00
2022-09-01T18:22:09.647Z,16.90
2022-09-01T18:24:47.363Z,16.90
2022-09-01T18:27:18.731Z,16.80
2022-09-01T18:29:58.422Z,16.70
2022-09-01T18:32:40.348Z,16.60
2022-09-01T18:35:28.295Z,16.60
2022-09-01T18:38:15.565Z,16.50
2022-09-01T18:41:15.366Z,16.50
2022-09-01T18:43:48.628Z,16.40
2022-09-01T18:46:29.204Z,16.40
2022-09-01T18:49:09.342Z,16.30
2022-09-01T18:51:57.174Z,16.20
2022-09-01T18:54:39.536Z,16.10
2022-09-01T18:57:11.862Z,16.00
2022-09-01T18:59:54.723Z,16.00
2022-09-01T19:02:40.294Z,16.00
2022-09-01T19:05:32.718Z,16.00
2022-09-01T19:08:21.783Z,15.90
2022-09-01T19:11:03.563Z,15.90
2022-09-01T19:13:54.920Z,15.80
2022-09-01T19:16:39.362Z,15.70
2022-09-01T19:19:33.583Z,15.70
2022-09-01T19:23:56.495Z,15.70
2022-09-01T19:26:38.074Z,15.70
2022-09-01T19:29:11.940Z,15.70
2022-09-01T19:35:49.204Z,15.60
2022-09-01T19:38:31.766Z,15.50
2022-09-01T19:41:11.451Z,15.50
2022-09-01T19:43:45.440Z,15.40
2022-09-01T19:46:23.604Z,15.40
2022-09-01T19:48:58.274Z,15.20
2022-09-01T19:51:31.854Z,15.30
2022-09-01T19:54:04.322Z,15.40
2022-09-01T19:56:39.802Z,15.40
2022-09-01T19:59:18.740Z,15.50
2022-09-01T20:01:55.647Z,15.70
2022-09-01T20:04:39.787Z,15.60
2022-09-01T20:07:15.646Z,15.60
2022-09-01T20:09:52.366Z,15.60
2022-09-01T20:12:31.893Z,15.50
2022-09-01T20:15:10.967Z,15.50
2022-09-01T20:17:44.293Z,15.60
2022-09-01T20:20:20.414Z,15.60
2022-09-01T20:22:56.571Z,15.60
2022-09-01T20:25:28.504Z,15.40
2022-09-01T20:28:08.295Z,15.20
2022-09-01T20:30:44.468Z,15.10
2022-09-01T20:33:19.563Z,15.00
2022-09-01T20:35:54.047Z,14.90
2022-09-01T20:38:52.757Z,14.90
2022-09-01T20:41:28.967Z,15.00
2022-09-01T20:44:00.541Z,15.10
2022-09-01T20:46:30.131Z,15.20
2022-09-01T20:48:58.574Z,15.10
2022-09-01T20:51:46.630Z,15.00
2022-09-01T20:54:31.824Z,14.90
2022-09-01T20:57:12.354Z,14.80
2022-09-01T20:59:54.798Z,14.80
2022-09-01T21:02:39.901Z,14.90
2022-09-01T21:05:17.740Z,15.00
2022-09-01T21:08:01.731Z,15.10
2022-09-01T21:10:41.571Z,15.10
2022-09-01T21:13:24.763Z,15.00
2022-09-01T21:16:00.411Z,14.90
2022-09-01T21:18:44.791Z,14.90
2022-09-01T21:21:22.941Z,14.90
2022-09-01T21:23:51.304Z,14.90
2022-09-01T21:26:40.340Z,15.00
2022-09-01T21:29:23.832Z,15.00
2022-09-01T21:31:57.267Z,15.00
2022-09-01T21:34:27.922Z,14.90
2022-09-01T21:36:56.142Z,14.90
2022-09-01T21:39:28.923Z,14.90
2022-09-01T21:41:58.722Z,15.00
2022-09-01T21:44:27.493Z,15.00
2022-09-01T21:46:58.505Z,15.00
2022-09-01T21:49:26.578Z,14.90
2022-09-01T21:51:57.276Z,14.80
2022-09-01T21:54:25.470Z,14.80
2022-09-01T21:56:54.460Z,14.80
2022-09-01T21:59:24.338Z,14.70
2022-09-01T22:01:54.557Z,14.70
2022-09-01T22:04:23.182Z,14.80
2022-09-01T22:06:52.383Z,15.00
2022-09-01T22:09:23.247Z,15.00
2022-09-01T22:11:54.903Z,15.00
2022-09-01T22:14:25.927Z,14.90
2022-09-01T22:16:54.274Z,14.70
2022-09-01T22:19:25.347Z,14.70
2022-09-01T22:21:54.537Z,14.70
2022-09-01T22:24:23.163Z,14.60
2022-09-01T22:26:52.970Z,14.80
2022-09-01T22:29:21.235Z,14.70
2022-09-01T22:31:58.499Z,14.80
2022-09-01T22:34:26.636Z,14.70
2022-09-01T22:36:54.856Z,14.70
2022-09-01T22:39:25.219Z,14.60
2022-09-01T22:42:07.589Z,14.50
2022-09-01T22:44:39.033Z,14.50
2022-09-01T22:47:10.644Z,14.50
2022-09-01T22:49:38.886Z,14.40
2022-09-01T22:52:07.018Z,14.40
2022-09-01T22:54:36.339Z,14.20
2022-09-01T22:57:04.602Z,14.20
2022-09-01T22:59:33.109Z,14.10
2022-09-01T23:02:01.910Z,14.00
2022-09-01T23:04:32.181Z,14.00
2022-09-01T23:07:02.021Z,14.00
2022-09-01T23:09:30.760Z,14.00
2022-09-01T23:11:59.085Z,13.90
2022-09-01T23:14:29.435Z,13.80
2022-09-01T23:16:57.844Z,13.80
2022-09-01T23:19:26.235Z,13.80
2022-09-01T23:22:14.731Z,13.80
2022-09-01T23:24:45.414Z,13.80
2022-09-01T23:27:13.551Z,13.80
2022-09-01T23:29:44.512Z,13.80
2022-09-01T23:32:15.466Z,13.60
2022-09-01T23:34:43.529Z,13.50
2022-09-01T23:37:11.666Z,13.40
2022-09-01T23:39:43.627Z,13.30
2022-09-01T23:42:11.832Z,13.20
2022-09-01T23:44:40.614Z,13.10
2022-09-01T23:47:08.784Z,13.00
2022-09-01T23:49:36.822Z,13.00
2022-09-01T23:52:04.962Z,12.90
2022-09-01T23:54:33.703Z,12.90
2022-09-01T23:57:03.236Z,12.90
2022-09-01T23:59:31.393Z,12.90
